createdAt,value
2022-08-04T00:00:15.267Z,100661.50
2022-08-04T00:03:13.018Z,100667.66
2022-08-04T00:06:09.548Z,100661.38
2022-08-04T00:08:50.137Z,100661.72
2022-08-04T00:11:23.037Z,100661.00
2022-08-04T00:14:02.294Z,100658.41
2022-08-04T00:16:38.568Z,100660.75
2022-08-04T00:19:23.300Z,100663.72
2022-08-04T00:21:59.615Z,100670.75
2022-08-04T00:24:30.641Z,100663.50
2022-08-04T00:26:58.675Z,100661.50
2022-08-04T00:29:27.689Z,100661.50
2022-08-04T00:31:58.019Z,100668.13
2022-08-04T00:34:31.428Z,100671.28
2022-08-04T00:36:59.846Z,100675.34
2022-08-04T00:39:28.014Z,100676.88
2022-08-04T00:42:14.220Z,100677.66
2022-08-04T00:44:42.152Z,100678.53
2022-08-04T00:47:17.666Z,100674.34
2022-08-04T00:50:09.490Z,100678.00
2022-08-04T00:52:46.746Z,100671.75
2022-08-04T00:55:30.148Z,100673.72
2022-08-04T00:58:30.009Z,100687.06
2022-08-04T01:01:05.238Z,100673.22
2022-08-04T01:03:48.340Z,100681.97
2022-08-04T01:06:27.359Z,100679.75
2022-08-04T01:09:25.195Z,100676.31
2022-08-04T01:12:19.354Z,100672.78
2022-08-04T01:14:57.008Z,100669.50
2022-08-04T01:17:37.810Z,100675.25
2022-08-04T01:20:10.825Z,100684.72
2022-08-04T01:22:57.259Z,100679.66
2022-08-04T01:25:58.995Z,100680.13
2022-08-04T01:28:42.832Z,100683.56
2022-08-04T01:31:41.092Z,100689.47
2022-08-04T01:34:13.481Z,100680.91
2022-08-04T01:36:50.042Z,100679.16
2022-08-04T01:39:39.544Z,100678.06
2022-08-04T01:42:09.704Z,100676.00
2022-08-04T01:44:39.547Z,100679.41
2022-08-04T01:47:08.172Z,100682.84
2022-08-04T01:49:40.669Z,100685.59
2022-08-04T01:52:10.477Z,100676.47
2022-08-04T01:54:42.173Z,100668.84
2022-08-04T01:57:37.883Z,100678.25
2022-08-04T02:00:00.500Z,100673.66
2022-08-04T02:02:28.556Z,100683.25
2022-08-04T02:04:56.819Z,100679.12
2022-08-04T02:07:27.075Z,100680.97
2022-08-04T02:10:04.080Z,100683.84
2022-08-04T02:12:49.493Z,100678.78
2022-08-04T02:15:28.229Z,100674.72
2022-08-04T02:17:56.094Z,100679.69
2022-08-04T02:20:33.554Z,100671.97
2022-08-04T02:23:08.019Z,100679.66
2022-08-04T02:25:47.721Z,100670.66
2022-08-04T02:28:22.897Z,100679.97
2022-08-04T02:30:53.621Z,100673.06
2022-08-04T02:33:27.419Z,100676.69
2022-08-04T02:35:59.842Z,100675.34
2022-08-04T02:38:54.289Z,100670.47
2022-08-04T02:41:27.258Z,100665.50
2022-08-04T02:44:00.679Z,100669.53
2022-08-04T02:46:30.512Z,100680.78
2022-08-04T02:49:01.579Z,100672.66
2022-08-04T02:51:30.141Z,100671.91
2022-08-04T02:53:59.818Z,100665.41
2022-08-04T02:56:30.690Z,100669.50
2022-08-04T02:59:01.936Z,100677.19
2022-08-04T03:01:30.495Z,100676.50
2022-08-04T03:04:22.115Z,100671.19
2022-08-04T03:07:24.564Z,100669.97
2022-08-04T03:10:18.384Z,100667.56
2022-08-04T03:13:24.554Z,100667.72
2022-08-04T03:16:30.384Z,100666.09
2022-08-04T03:19:25.177Z,100672.44
2022-08-04T03:22:12.033Z,100668.47
2022-08-04T03:24:48.716Z,100680.69
2022-08-04T03:27:25.623Z,100675.88
2022-08-04T03:29:59.592Z,100673.59
2022-08-04T03:32:59.914Z,100671.28
2022-08-04T03:35:39.589Z,100672.34
2022-08-04T03:38:24.010Z,100674.69
2022-08-04T03:41:04.209Z,100679.84
2022-08-04T03:43:58.279Z,100675.72
2022-08-04T03:46:48.347Z,100679.12
2022-08-04T03:49:41.218Z,100674.94
2022-08-04T03:52:48.850Z,100683.88
2022-08-04T03:55:32.089Z,100682.47
2022-08-04T03:58:05.925Z,100685.03
2022-08-04T04:00:53.132Z,100684.41
2022-08-04T04:03:53.099Z,100681.50
2022-08-04T04:06:54.438Z,100685.84
2022-08-04T04:09:57.770Z,100688.91
2022-08-04T04:12:42.684Z,100687.78
2022-08-04T04:15:54.614Z,100693.31
2022-08-04T04:19:06.489Z,100693.34
2022-08-04T04:21:37.075Z,100700.59
2022-08-04T04:24:35.323Z,100689.59
2022-08-04T04:27:22.641Z,100686.53
2022-08-04T04:29:56.838Z,100692.34
2022-08-04T04:32:44.539Z,100699.31
2022-08-04T04:35:37.911Z,100700.78
2022-08-04T04:38:24.307Z,100702.06
2022-08-04T04:40:57.894Z,100708.53
2022-08-04T04:44:04.675Z,100708.91
2022-08-04T04:46:59.938Z,100709.84
2022-08-04T04:49:54.643Z,100711.50
2022-08-04T04:52:30.949Z,100710.47
2022-08-04T04:55:20.984Z,100718.06
2022-08-04T04:57:53.910Z,100720.59
2022-08-04T05:00:45.991Z,100709.03
2022-08-04T05:03:22.671Z,100711.84
2022-08-04T05:05:59.953Z,100703.12
2022-08-04T05:09:14.426Z,100705.31
2022-08-04T05:12:00.333Z,100707.53
2022-08-04T05:14:50.325Z,100706.03
2022-08-04T05:17:27.742Z,100710.44
2022-08-04T05:20:06.401Z,100712.19
2022-08-04T05:22:52.703Z,100712.56
2022-08-04T05:25:37.053Z,100720.03
2022-08-04T05:28:16.736Z,100712.09
2022-08-04T05:30:50.295Z,100720.88
2022-08-04T05:33:33.189Z,100715.75
2022-08-04T05:36:20.868Z,100724.13
2022-08-04T05:39:00.058Z,100728.25
2022-08-04T05:41:32.120Z,100732.41
2022-08-04T05:44:10.483Z,100729.09
2022-08-04T05:46:38.392Z,100730.44
2022-08-04T05:49:08.447Z,100730.97
2022-08-04T05:51:36.496Z,100730.94
2022-08-04T05:54:06.636Z,100730.22
2022-08-04T05:56:35.689Z,100735.44
2022-08-04T05:59:05.748Z,100730.62
2022-08-04T06:01:55.318Z,100729.50
2022-08-04T06:04:28.320Z,100740.09
2022-08-04T06:06:56.025Z,100731.19
2022-08-04T06:09:24.257Z,100736.50
2022-08-04T06:12:00.608Z,100735.34
2022-08-04T06:14:37.426Z,100731.56
2022-08-04T06:19:56.151Z,100736.75
2022-08-04T06:20:02.310Z,100732.94
2022-08-04T06:22:46.504Z,100740.97
2022-08-04T06:25:21.151Z,100738.13
2022-08-04T06:27:51.210Z,100738.34
2022-08-04T06:30:20.227Z,100740.84
2022-08-04T06:33:03.458Z,100740.31
2022-08-04T06:35:34.114Z,100737.56
2022-08-04T06:38:03.155Z,100744.41
2022-08-04T06:40:34.217Z,100732.50
2022-08-04T06:43:06.068Z,100734.81
2022-08-04T06:45:37.192Z,100739.00
2022-08-04T06:48:06.598Z,100736.00
2022-08-04T06:51:30.390Z,100736.41
2022-08-04T06:53:25.114Z,100731.59
2022-08-04T06:55:54.131Z,100732.03
2022-08-04T06:58:23.455Z,100736.62
2022-08-04T07:00:52.845Z,100736.28
2022-08-04T07:03:21.832Z,100742.19
2022-08-04T07:05:56.196Z,100737.94
2022-08-04T07:08:24.403Z,100744.12
2022-08-04T07:10:53.458Z,100737.06
2022-08-04T07:13:22.505Z,100744.41
2022-08-04T07:15:51.216Z,100743.72
2022-08-04T07:18:19.804Z,100743.09
2022-08-04T07:20:49.173Z,100745.34
2022-08-04T07:23:22.767Z,100741.25
2022-08-04T07:25:59.801Z,100745.78
2022-08-04T07:28:41.902Z,100737.78
2022-08-04T07:31:33.707Z,100737.78
2022-08-04T07:34:20.838Z,100734.66
2022-08-04T07:36:55.930Z,100740.84
2022-08-04T07:39:28.427Z,100731.22
2022-08-04T07:42:02.510Z,100730.44
2022-08-04T07:44:32.378Z,100733.06
2022-08-04T07:47:06.439Z,100737.28
2022-08-04T07:49:55.251Z,100735.97
2022-08-04T07:52:25.079Z,100732.97
2022-08-04T07:54:53.899Z,100736.62
2022-08-04T07:57:41.383Z,100734.56
2022-08-04T08:00:15.224Z,100725.75
2022-08-04T08:02:45.752Z,100727.91
2022-08-04T08:05:17.026Z,100737.69
2022-08-04T08:07:55.220Z,100736.34
2022-08-04T08:10:24.849Z,100734.44
2022-08-04T08:12:54.724Z,100726.00
2022-08-04T08:15:22.612Z,100733.72
2022-08-04T08:17:59.965Z,100730.41
2022-08-04T08:20:31.038Z,100725.69
2022-08-04T08:23:00.897Z,100726.22
2022-08-04T08:25:30.017Z,100739.16
2022-08-04T08:27:57.670Z,100739.34
2022-08-04T08:30:31.394Z,100738.91
2022-08-04T08:33:03.757Z,100734.78
2022-08-04T08:35:51.088Z,100733.78
2022-08-04T08:38:37.686Z,100730.31
2022-08-04T08:41:36.403Z,100739.44
2022-08-04T08:44:57.632Z,100731.50
2022-08-04T08:48:04.998Z,100728.63
2022-08-04T08:50:50.983Z,100730.69
2022-08-04T08:53:21.381Z,100737.72
2022-08-04T08:55:58.362Z,100736.34
2022-08-04T08:59:14.925Z,100743.62
2022-08-04T09:01:46.167Z,100736.81
2022-08-04T09:04:55.262Z,100735.66
2022-08-04T09:07:46.510Z,100730.09
2022-08-04T09:10:44.817Z,100735.91
2022-08-04T09:13:27.942Z,100730.53
2022-08-04T09:16:10.449Z,100733.69
2022-08-04T09:18:59.999Z,100721.94
2022-08-04T09:21:48.288Z,100731.22
2022-08-04T09:24:35.381Z,100731.59
2022-08-04T09:27:20.166Z,100734.72
2022-08-04T09:30:07.748Z,100724.13
2022-08-04T09:32:38.206Z,100715.72
2022-08-04T09:35:33.776Z,100729.28
2022-08-04T09:38:23.451Z,100717.63
2022-08-04T09:41:07.410Z,100717.34
2022-08-04T09:44:52.373Z,100709.97
2022-08-04T09:47:11.853Z,100720.66
2022-08-04T09:49:47.750Z,100706.53
2022-08-04T09:52:49.951Z,100721.44
2022-08-04T09:55:34.731Z,100705.03
2022-08-04T09:58:16.532Z,100702.97
2022-08-04T10:00:51.269Z,100706.66
2022-08-04T10:03:23.310Z,100702.31
2022-08-04T10:06:23.451Z,100692.78
2022-08-04T10:09:33.013Z,100702.94
2022-08-04T10:12:24.588Z,100702.69
2022-08-04T10:15:03.003Z,100691.59
2022-08-04T10:17:52.865Z,100703.53
2022-08-04T10:20:36.503Z,100697.44
2022-08-04T10:23:55.267Z,100692.41
2022-08-04T10:26:24.752Z,100694.31
2022-08-04T10:29:15.478Z,100702.41
2022-08-04T10:31:49.509Z,100691.47
2022-08-04T10:34:21.982Z,100694.03
2022-08-04T10:36:58.482Z,100695.56
2022-08-04T10:39:44.445Z,100682.50
2022-08-04T10:42:29.940Z,100688.88
2022-08-04T10:45:22.556Z,100688.31
2022-08-04T10:48:34.215Z,100689.69
2022-08-04T10:51:20.140Z,100686.69
2022-08-04T10:53:55.978Z,100684.09
2022-08-04T10:56:37.424Z,100689.44
2022-08-04T10:59:36.969Z,100684.87
2022-08-04T11:02:17.962Z,100683.63
2022-08-04T11:04:59.631Z,100672.97
2022-08-04T11:07:33.595Z,100680.56
2022-08-04T11:10:02.712Z,100668.38
2022-08-04T11:12:33.839Z,100674.47
2022-08-04T11:15:08.932Z,100666.31
2022-08-04T11:17:40.821Z,100666.53
2022-08-04T11:20:34.969Z,100669.16
2022-08-04T11:23:15.431Z,100667.81
2022-08-04T11:26:02.233Z,100667.91
2022-08-04T11:29:03.173Z,100662.56
2022-08-04T11:31:33.692Z,100664.25
2022-08-04T11:34:10.213Z,100665.34
2022-08-04T11:37:06.235Z,100658.72
2022-08-04T11:39:49.018Z,100657.19
2022-08-04T11:42:56.523Z,100655.44
2022-08-04T11:46:01.837Z,100661.09
2022-08-04T11:48:42.145Z,100659.56
2022-08-04T11:51:10.072Z,100655.97
2022-08-04T11:53:40.129Z,100644.91
2022-08-04T11:56:11.128Z,100646.31
2022-08-04T11:58:39.440Z,100651.06
2022-08-04T12:01:43.455Z,100647.72
2022-08-04T12:04:24.449Z,100638.19
2022-08-04T12:07:21.359Z,100643.41
2022-08-04T12:10:41.379Z,100635.16
2022-08-04T12:13:28.542Z,100636.31
2022-08-04T12:16:03.670Z,100638.78
2022-08-04T12:18:39.365Z,100639.34
2022-08-04T12:21:31.160Z,100636.47
2022-08-04T12:24:09.543Z,100639.72
2022-08-04T12:26:43.595Z,100629.72
2022-08-04T12:29:17.397Z,100638.84
2022-08-04T12:31:55.649Z,100627.88
2022-08-04T12:34:34.676Z,100629.81
2022-08-04T12:37:09.808Z,100619.13
2022-08-04T12:40:22.601Z,100631.47
2022-08-04T12:42:42.258Z,100628.84
2022-08-04T12:45:28.848Z,100627.44
2022-08-04T12:47:59.715Z,100623.53
2022-08-04T12:50:28.876Z,100623.75
2022-08-04T12:53:02.047Z,100618.25
2022-08-04T12:55:34.266Z,100612.34
2022-08-04T12:58:11.839Z,100610.41
2022-08-04T13:00:42.080Z,100614.56
2022-08-04T13:03:14.612Z,100611.47
2022-08-04T13:05:43.728Z,100617.47
2022-08-04T13:08:13.298Z,100607.06
2022-08-04T13:10:47.219Z,100603.03
2022-08-04T13:13:20.723Z,100610.19
2022-08-04T13:15:57.117Z,100603.88
2022-08-04T13:18:30.416Z,100593.97
2022-08-04T13:21:16.999Z,100590.81
2022-08-04T13:24:10.842Z,100586.31
2022-08-04T13:26:58.199Z,100593.00
2022-08-04T13:30:00.412Z,100584.50
2022-08-04T13:32:35.892Z,100588.94
2022-08-04T13:35:05.944Z,100578.72
2022-08-04T13:37:41.696Z,100576.81
2022-08-04T13:40:12.783Z,100567.81
2022-08-04T13:42:46.785Z,100569.47
2022-08-04T13:45:18.937Z,100576.53
2022-08-04T13:47:48.670Z,100573.72
2022-08-04T13:50:23.768Z,100576.63
2022-08-04T13:52:54.874Z,100580.84
2022-08-04T13:55:33.495Z,100574.19
2022-08-04T13:58:01.416Z,100569.25
2022-08-04T14:00:41.765Z,100563.03
2022-08-04T14:03:23.445Z,100561.25
2022-08-04T14:06:11.630Z,100565.25
2022-08-04T14:09:08.747Z,100562.56
2022-08-04T14:12:10.675Z,100568.13
2022-08-04T14:14:37.350Z,100572.59
2022-08-04T14:17:20.477Z,100567.34
2022-08-04T14:19:57.462Z,100562.25
2022-08-04T14:22:28.283Z,100550.00
2022-08-04T14:24:57.673Z,100550.81
2022-08-04T14:27:28.366Z,100559.84
2022-08-04T14:29:57.111Z,100552.34
2022-08-04T14:32:26.442Z,100552.28
2022-08-04T14:34:54.353Z,100553.59
2022-08-04T14:37:23.405Z,100553.28
2022-08-04T14:40:18.744Z,100563.56
2022-08-04T14:42:55.024Z,100554.25
2022-08-04T14:45:38.955Z,100548.25
2022-08-04T14:48:22.731Z,100546.16
2022-08-04T14:50:51.010Z,100552.34
2022-08-04T14:53:22.544Z,100546.88
2022-08-04T14:55:53.873Z,100546.59
2022-08-04T14:58:33.696Z,100548.75
2022-08-04T15:01:12.449Z,100544.00
2022-08-04T15:03:49.981Z,100546.16
2022-08-04T15:06:26.396Z,100544.59
2022-08-04T15:08:56.870Z,100533.91
2022-08-04T15:11:29.892Z,100550.16
2022-08-04T15:13:58.989Z,100541.28
2022-08-04T15:16:29.826Z,100538.91
2022-08-04T15:18:59.979Z,100533.41
2022-08-04T15:21:29.861Z,100530.84
2022-08-04T15:23:58.772Z,100537.09
2022-08-04T15:26:38.867Z,100540.12
2022-08-04T15:29:19.166Z,100539.91
2022-08-04T15:32:07.865Z,100532.06
2022-08-04T15:34:54.960Z,100524.28
2022-08-04T15:38:10.595Z,100532.97
2022-08-04T15:40:48.533Z,100535.81
2022-08-04T15:43:31.252Z,100523.62
2022-08-04T15:46:33.021Z,100522.78
2022-08-04T15:48:52.068Z,100531.03
2022-08-04T15:51:32.273Z,100521.78
2022-08-04T15:54:02.747Z,100523.28
2022-08-04T15:56:32.242Z,100517.44
2022-08-04T15:59:00.085Z,100509.44
2022-08-04T16:01:28.226Z,100515.56
2022-08-04T16:04:01.083Z,100512.28
2022-08-04T16:06:30.431Z,100513.28
2022-08-04T16:09:00.995Z,100510.78
2022-08-04T16:11:36.885Z,100507.38
2022-08-04T16:14:06.586Z,100510.03
2022-08-04T16:16:37.469Z,100510.63
2022-08-04T16:19:05.443Z,100506.91
2022-08-04T16:21:35.007Z,100506.97
2022-08-04T16:24:31.720Z,100515.00
2022-08-04T16:27:02.157Z,100513.59
2022-08-04T16:29:40.100Z,100512.16
2022-08-04T16:32:14.111Z,100511.44
2022-08-04T16:34:54.421Z,100510.09
2022-08-04T16:37:31.139Z,100514.69
2022-08-04T16:40:47.200Z,100514.47
2022-08-04T16:43:21.196Z,100508.63
2022-08-04T16:46:13.545Z,100508.19
2022-08-04T16:49:06.296Z,100509.47
2022-08-04T16:51:34.192Z,100503.34
2022-08-04T16:54:05.561Z,100502.72
2022-08-04T16:56:35.576Z,100506.50
2022-08-04T16:59:13.249Z,100510.84
2022-08-04T17:01:52.353Z,100514.03
2022-08-04T17:04:31.155Z,100509.75
2022-08-04T17:07:03.970Z,100515.72
2022-08-04T17:09:32.846Z,100511.84
2022-08-04T17:12:02.282Z,100509.34
2022-08-04T17:14:31.390Z,100511.41
2022-08-04T17:17:01.925Z,100515.09
2022-08-04T17:19:29.638Z,100516.94
2022-08-04T17:22:05.511Z,100514.63
2022-08-04T17:24:36.902Z,100516.13
2022-08-04T17:28:09.085Z,100516.62
2022-08-04T17:29:54.779Z,100517.28
2022-08-04T17:32:23.608Z,100514.16
2022-08-04T17:34:55.171Z,100513.44
2022-08-04T17:37:53.065Z,100517.97
2022-08-04T17:40:18.514Z,100512.25
2022-08-04T17:44:01.401Z,100518.91
2022-08-04T17:46:15.559Z,100513.78
2022-08-04T17:48:57.202Z,100517.00
2022-08-04T17:52:04.297Z,100513.19
2022-08-04T17:54:39.092Z,100511.81
2022-08-04T17:57:19.967Z,100511.81
2022-08-04T17:59:57.860Z,100513.59
2022-08-04T18:02:32.564Z,100508.13
2022-08-04T18:08:37.643Z,100506.59
2022-08-04T18:10:55.696Z,100514.00
2022-08-04T18:13:28.298Z,100511.06
2022-08-04T18:16:09.019Z,100517.19
2022-08-04T18:18:48.894Z,100518.87
2022-08-04T18:21:17.077Z,100524.59
2022-08-04T18:23:50.905Z,100529.66
2022-08-04T18:26:23.737Z,100525.91
2022-08-04T18:28:53.465Z,100530.47
2022-08-04T18:31:21.496Z,100530.44
2022-08-04T18:33:59.094Z,100530.09
2022-08-04T18:36:33.808Z,100537.31
2022-08-04T18:39:13.266Z,100540.03
2022-08-04T18:42:01.207Z,100534.28
2022-08-04T18:44:32.140Z,100532.72
2022-08-04T18:47:22.560Z,100543.50
2022-08-04T18:51:00.443Z,100540.81
2022-08-04T18:52:42.098Z,100544.28
2022-08-04T18:55:55.706Z,100542.00
2022-08-04T18:58:07.112Z,100543.94
2022-08-04T19:00:36.287Z,100540.41
2022-08-04T19:03:05.062Z,100541.09
2022-08-04T19:05:38.174Z,100538.34
2022-08-04T19:08:32.629Z,100541.03
2022-08-04T19:10:59.934Z,100538.75
2022-08-04T19:13:34.804Z,100543.28
2022-08-04T19:16:03.104Z,100543.22
2022-08-04T19:18:36.522Z,100545.59
2022-08-04T19:24:30.399Z,100546.28
2022-08-04T19:26:42.614Z,100546.72
2022-08-04T19:29:18.701Z,100546.44
2022-08-04T19:31:46.397Z,100549.91
2022-08-04T19:34:14.082Z,100539.06
2022-08-04T19:36:46.028Z,100547.50
2022-08-04T19:39:14.295Z,100549.50
2022-08-04T19:42:05.877Z,100547.81
2022-08-04T19:44:31.665Z,100547.69
2022-08-04T19:47:00.895Z,100549.97
2022-08-04T19:50:05.088Z,100543.13
2022-08-04T19:52:34.107Z,100542.69
2022-08-04T19:55:10.942Z,100549.37
2022-08-04T19:57:46.096Z,100549.37
2022-08-04T20:00:15.260Z,100549.13
2022-08-04T20:02:45.202Z,100546.09
2022-08-04T20:05:13.533Z,100547.94
2022-08-04T20:07:41.311Z,100553.72
2022-08-04T20:10:13.090Z,100550.84
2022-08-04T20:12:42.198Z,100552.53
2022-08-04T20:15:10.945Z,100555.94
2022-08-04T20:18:08.416Z,100550.19
2022-08-04T20:20:28.345Z,100554.91
2022-08-04T20:22:56.073Z,100560.84
2022-08-04T20:25:37.221Z,100561.47
2022-08-04T20:28:06.088Z,100563.19
2022-08-04T20:30:33.809Z,100559.47
2022-08-04T20:33:04.389Z,100559.81
2022-08-04T20:35:45.912Z,100560.78
2022-08-04T20:38:33.101Z,100563.88
2022-08-04T20:41:02.531Z,100560.72
2022-08-04T20:43:31.389Z,100556.41
2022-08-04T20:45:59.722Z,100557.94
2022-08-04T20:48:29.114Z,100557.94
2022-08-04T20:51:01.184Z,100557.12
2022-08-04T20:53:32.786Z,100558.22
2022-08-04T20:56:19.167Z,100554.84
2022-08-04T20:58:59.935Z,100551.22
2022-08-04T21:01:29.906Z,100554.97
2022-08-04T21:04:27.369Z,100560.16
2022-08-04T21:06:58.012Z,100560.66
2022-08-04T21:09:38.041Z,100564.97
2022-08-04T21:12:26.668Z,100556.44
2022-08-04T21:15:13.501Z,100569.41
2022-08-04T21:17:59.191Z,100565.19
2022-08-04T21:20:33.588Z,100562.41
2022-08-04T21:23:04.881Z,100560.53
2022-08-04T21:25:39.097Z,100560.09
2022-08-04T21:28:12.421Z,100562.53
2022-08-04T21:30:54.501Z,100566.06
2022-08-04T21:33:28.213Z,100564.62
2022-08-04T21:36:14.045Z,100566.28
2022-08-04T21:38:42.021Z,100571.97
2022-08-04T21:41:24.950Z,100565.38
2022-08-04T21:43:55.331Z,100568.44
2022-08-04T21:46:24.221Z,100568.56
2022-08-04T21:48:52.101Z,100574.72
2022-08-04T21:51:59.684Z,100570.62
2022-08-04T21:54:17.297Z,100567.97
2022-08-04T21:56:50.695Z,100573.97
2022-08-04T21:59:23.901Z,100575.81
2022-08-04T22:02:00.868Z,100568.44
2022-08-04T22:04:30.746Z,100577.84
2022-08-04T22:07:02.630Z,100577.56
2022-08-04T22:09:38.583Z,100574.53
2022-08-04T22:12:11.924Z,100574.88
2022-08-04T22:14:40.779Z,100581.88
2022-08-04T22:17:23.867Z,100578.00
2022-08-04T22:19:56.402Z,100579.47
2022-08-04T22:22:29.170Z,100581.03
2022-08-04T22:25:12.419Z,100577.56
2022-08-04T22:28:01.596Z,100586.03
2022-08-04T22:30:36.863Z,100574.25
2022-08-04T22:33:08.031Z,100582.13
2022-08-04T22:35:49.203Z,100587.13
2022-08-04T22:38:26.800Z,100586.06
2022-08-04T22:41:01.740Z,100584.44
2022-08-04T22:43:31.835Z,100586.37
2022-08-04T22:46:08.083Z,100590.78
2022-08-04T22:48:38.606Z,100585.28
2022-08-04T22:51:07.747Z,100587.03
2022-08-04T22:53:36.313Z,100578.47
2022-08-04T22:56:10.460Z,100581.19
2022-08-04T22:58:44.853Z,100585.81
2022-08-04T23:01:16.649Z,100576.37
2022-08-04T23:03:50.963Z,100581.47
2022-08-04T23:06:28.399Z,100575.97
2022-08-04T23:08:57.855Z,100581.88
2022-08-04T23:11:34.610Z,100575.00
2022-08-04T23:14:05.253Z,100581.03
2022-08-04T23:16:40.845Z,100570.91
2022-08-04T23:19:12.066Z,100583.75
2022-08-04T23:21:47.993Z,100580.34
2022-08-04T23:24:30.183Z,100575.94
2022-08-04T23:26:59.263Z,100576.41
2022-08-04T23:29:27.696Z,100578.78
2022-08-04T23:32:15.636Z,100580.97
2022-08-04T23:34:48.196Z,100577.25
2022-08-04T23:37:16.191Z,100582.06
2022-08-04T23:40:14.349Z,100579.00
2022-08-04T23:42:31.976Z,100579.66
2022-08-04T23:44:59.726Z,100564.00
2022-08-04T23:48:16.580Z,100576.22
2022-08-04T23:50:16.286Z,100574.09
2022-08-04T23:52:44.542Z,100579.31
2022-08-04T23:55:19.195Z,100574.75
2022-08-04T23:58:05.552Z,100569.44
